sensor_id;sensor_type;location;lat;lon;timestamp;temperature;humidity
47540;DHT22;33280;52.152;21.052;2023-11-19T00:00:10;0.90;99.90
47540;DHT22;33280;52.152;21.052;2023-11-19T00:02:41;0.90;99.90
47540;DHT22;33280;52.152;21.052;2023-11-19T00:05:10;0.90;99.90
47540;DHT22;33280;52.152;21.052;2023-11-19T00:07:40;0.90;99.90
47540;DHT22;33280;52.152;21.052;2023-11-19T00:10:09;1.00;99.90
47540;DHT22;33280;52.152;21.052;2023-11-19T00:12:42;0.90;99.90
47540;DHT22;33280;52.152;21.052;2023-11-19T00:15:15;1.00;99.90
47540;DHT22;33280;52.152;21.052;2023-11-19T00:17:44;1.00;99.90
47540;DHT22;33280;52.152;21.052;2023-11-19T00:20:18;1.00;99.90
47540;DHT22;33280;52.152;21.052;2023-11-19T00:22:46;0.90;99.90
47540;DHT22;33280;52.152;21.052;2023-11-19T00:25:20;0.90;99.90
47540;DHT22;33280;52.152;21.052;2023-11-19T00:27:52;0.90;99.90
47540;DHT22;33280;52.152;21.052;2023-11-19T00:30:21;1.00;99.90
47540;DHT22;33280;52.152;21.052;2023-11-19T00:32:49;0.90;99.90
47540;DHT22;33280;52.152;21.052;2023-11-19T00:35:15;1.10;99.90
47540;DHT22;33280;52.152;21.052;2023-11-19T00:37:43;1.00;99.90
47540;DHT22;33280;52.152;21.052;2023-11-19T00:40:10;1.00;99.90
47540;DHT22;33280;52.152;21.052;2023-11-19T00:42:38;1.00;99.90
47540;DHT22;33280;52.152;21.052;2023-11-19T00:45:05;1.00;99.90
47540;DHT22;33280;52.152;21.052;2023-11-19T00:47:37;1.00;99.90
47540;DHT22;33280;52.152;21.052;2023-11-19T00:50:04;1.00;99.90
47540;DHT22;33280;52.152;21.052;2023-11-19T00:52:32;1.00;99.90
47540;DHT22;33280;52.152;21.052;2023-11-19T00:54:59;0.90;99.90
47540;DHT22;33280;52.152;21.052;2023-11-19T00:57:26;1.00;99.90
47540;DHT22;33280;52.152;21.052;2023-11-19T00:59:54;1.00;99.90
47540;DHT22;33280;52.152;21.052;2023-11-19T01:02:21;1.00;99.90
47540;DHT22;33280;52.152;21.052;2023-11-19T01:04:48;1.00;99.90
47540;DHT22;33280;52.152;21.052;2023-11-19T01:07:15;1.00;99.90
47540;DHT22;33280;52.152;21.052;2023-11-19T01:09:43;1.00;99.90
47540;DHT22;33280;52.152;21.052;2023-11-19T01:12:10;1.00;99.90
47540;DHT22;33280;52.152;21.052;2023-11-19T01:14:37;1.00;99.90
47540;DHT22;33280;52.152;21.052;2023-11-19T01:17:05;1.00;99.90
47540;DHT22;33280;52.152;21.052;2023-11-19T01:19:32;1.00;99.90
47540;DHT22;33280;52.152;21.052;2023-11-19T01:22:00;1.00;99.90
47540;DHT22;33280;52.152;21.052;2023-11-19T01:24:27;0.90;99.90
47540;DHT22;33280;52.152;21.052;2023-11-19T01:26:55;0.90;99.90
47540;DHT22;33280;52.152;21.052;2023-11-19T01:29:24;0.90;99.90
47540;DHT22;33280;52.152;21.052;2023-11-19T01:31:51;0.90;99.90
47540;DHT22;33280;52.152;21.052;2023-11-19T01:34:18;0.90;99.90
47540;DHT22;33280;52.152;21.052;2023-11-19T01:36:47;1.00;99.90
47540;DHT22;33280;52.152;21.052;2023-11-19T01:39:16;0.80;99.90
47540;DHT22;33280;52.152;21.052;2023-11-19T01:41:43;0.90;99.90
47540;DHT22;33280;52.152;21.052;2023-11-19T01:44:11;0.90;99.90
47540;DHT22;33280;52.152;21.052;2023-11-19T01:46:43;0.90;99.90
47540;DHT22;33280;52.152;21.052;2023-11-19T01:49:11;0.90;99.90
47540;DHT22;33280;52.152;21.052;2023-11-19T01:51:40;0.90;99.90
47540;DHT22;33280;52.152;21.052;2023-11-19T01:54:08;0.90;99.90
47540;DHT22;33280;52.152;21.052;2023-11-19T01:56:37;1.00;99.90
47540;DHT22;33280;52.152;21.052;2023-11-19T01:59:08;0.90;99.90
47540;DHT22;33280;52.152;21.052;2023-11-19T02:01:36;0.90;99.90
47540;DHT22;33280;52.152;21.052;2023-11-19T02:04:08;0.90;99.90
47540;DHT22;33280;52.152;21.052;2023-11-19T02:06:39;0.90;99.90
47540;DHT22;33280;52.152;21.052;2023-11-19T02:09:07;0.90;99.90
47540;DHT22;33280;52.152;21.052;2023-11-19T02:11:35;0.90;99.90
47540;DHT22;33280;52.152;21.052;2023-11-19T02:14:02;0.90;99.90
47540;DHT22;33280;52.152;21.052;2023-11-19T02:16:33;0.90;99.90
47540;DHT22;33280;52.152;21.052;2023-11-19T02:19:01;0.90;99.90
47540;DHT22;33280;52.152;21.052;2023-11-19T02:21:29;1.00;99.90
47540;DHT22;33280;52.152;21.052;2023-11-19T02:23:56;0.90;99.90
47540;DHT22;33280;52.152;21.052;2023-11-19T02:26:59;0.90;99.90
47540;DHT22;33280;52.152;21.052;2023-11-19T02:29:29;0.90;99.90
47540;DHT22;33280;52.152;21.052;2023-11-19T02:31:56;0.90;99.90
47540;DHT22;33280;52.152;21.052;2023-11-19T02:34:23;0.90;99.90
47540;DHT22;33280;52.152;21.052;2023-11-19T02:36:50;0.90;99.90
47540;DHT22;33280;52.152;21.052;2023-11-19T02:39:17;1.00;99.90
47540;DHT22;33280;52.152;21.052;2023-11-19T02:41:48;1.00;99.90
47540;DHT22;33280;52.152;21.052;2023-11-19T02:44:19;1.00;99.90
47540;DHT22;33280;52.152;21.052;2023-11-19T02:46:46;1.10;99.90
47540;DHT22;33280;52.152;21.052;2023-11-19T02:49:15;0.90;99.90
47540;DHT22;33280;52.152;21.052;2023-11-19T02:51:42;0.90;99.90
47540;DHT22;33280;52.152;21.052;2023-11-19T02:54:10;0.90;99.90
47540;DHT22;33280;52.152;21.052;2023-11-19T02:56:37;0.90;99.90
47540;DHT22;33280;52.152;21.052;2023-11-19T02:59:05;0.80;99.90
47540;DHT22;33280;52.152;21.052;2023-11-19T03:01:42;0.70;99.90
47540;DHT22;33280;52.152;21.052;2023-11-19T03:04:11;0.70;99.90
47540;DHT22;33280;52.152;21.052;2023-11-19T03:06:39;0.70;99.90
47540;DHT22;33280;52.152;21.052;2023-11-19T03:09:06;0.80;99.90
47540;DHT22;33280;52.152;21.052;2023-11-19T03:11:37;0.80;99.90
47540;DHT22;33280;52.152;21.052;2023-11-19T03:14:05;0.80;99.90
47540;DHT22;33280;52.152;21.052;2023-11-19T03:16:33;0.80;99.90
47540;DHT22;33280;52.152;21.052;2023-11-19T03:19:00;0.90;99.90
47540;DHT22;33280;52.152;21.052;2023-11-19T03:21:30;0.90;99.90
47540;DHT22;33280;52.152;21.052;2023-11-19T03:23:58;0.90;99.90
47540;DHT22;33280;52.152;21.052;2023-11-19T03:26:27;1.00;99.90
47540;DHT22;33280;52.152;21.052;2023-11-19T03:28:55;1.00;99.90
47540;DHT22;33280;52.152;21.052;2023-11-19T03:31:24;1.00;99.90
47540;DHT22;33280;52.152;21.052;2023-11-19T03:33:52;1.00;99.90
47540;DHT22;33280;52.152;21.052;2023-11-19T03:36:21;0.90;99.90
47540;DHT22;33280;52.152;21.052;2023-11-19T03:38:49;1.00;99.90
47540;DHT22;33280;52.152;21.052;2023-11-19T03:41:16;1.00;99.90
47540;DHT22;33280;52.152;21.052;2023-11-19T03:43:44;1.00;99.90
47540;DHT22;33280;52.152;21.052;2023-11-19T03:46:20;1.00;99.90
47540;DHT22;33280;52.152;21.052;2023-11-19T03:48:50;1.00;99.90
47540;DHT22;33280;52.152;21.052;2023-11-19T03:51:17;1.00;99.90
47540;DHT22;33280;52.152;21.052;2023-11-19T03:53:45;1.00;99.90
47540;DHT22;33280;52.152;21.052;2023-11-19T03:56:13;1.10;99.90
47540;DHT22;33280;52.152;21.052;2023-11-19T03:58:40;1.10;99.90
47540;DHT22;33280;52.152;21.052;2023-11-19T04:01:11;1.00;99.90
47540;DHT22;33280;52.152;21.052;2023-11-19T04:03:41;1.00;99.90
47540;DHT22;33280;52.152;21.052;2023-11-19T04:06:12;1.00;99.90
47540;DHT22;33280;52.152;21.052;2023-11-19T04:08:39;1.00;99.90
47540;DHT22;33280;52.152;21.052;2023-11-19T04:11:06;1.10;99.90
47540;DHT22;33280;52.152;21.052;2023-11-19T04:13:33;1.10;99.90
47540;DHT22;33280;52.152;21.052;2023-11-19T04:16:00;1.00;99.90
47540;DHT22;33280;52.152;21.052;2023-11-19T04:18:28;0.90;99.90
47540;DHT22;33280;52.152;21.052;2023-11-19T04:20:55;1.00;99.90
47540;DHT22;33280;52.152;21.052;2023-11-19T04:23:23;1.00;99.90
47540;DHT22;33280;52.152;21.052;2023-11-19T04:25:51;1.00;99.90
47540;DHT22;33280;52.152;21.052;2023-11-19T04:28:18;0.90;99.90
47540;DHT22;33280;52.152;21.052;2023-11-19T04:30:45;0.90;99.90
47540;DHT22;33280;52.152;21.052;2023-11-19T04:33:12;0.70;99.90
47540;DHT22;33280;52.152;21.052;2023-11-19T04:35:39;0.80;99.90
47540;DHT22;33280;52.152;21.052;2023-11-19T04:38:06;0.80;99.90
47540;DHT22;33280;52.152;21.052;2023-11-19T04:40:33;0.80;99.90
47540;DHT22;33280;52.152;21.052;2023-11-19T04:43:01;0.80;99.90
47540;DHT22;33280;52.152;21.052;2023-11-19T04:45:28;0.90;99.90
47540;DHT22;33280;52.152;21.052;2023-11-19T04:47:55;0.90;99.90
47540;DHT22;33280;52.152;21.052;2023-11-19T04:50:22;0.90;99.90
47540;DHT22;33280;52.152;21.052;2023-11-19T04:52:49;0.90;99.90
47540;DHT22;33280;52.152;21.052;2023-11-19T04:55:16;0.90;99.90
47540;DHT22;33280;52.152;21.052;2023-11-19T04:57:44;1.00;99.90
47540;DHT22;33280;52.152;21.052;2023-11-19T05:00:11;0.80;99.90
47540;DHT22;33280;52.152;21.052;2023-11-19T05:02:41;0.80;99.90
47540;DHT22;33280;52.152;21.052;2023-11-19T05:05:09;0.70;99.90
47540;DHT22;33280;52.152;21.052;2023-11-19T05:07:36;0.70;99.90
47540;DHT22;33280;52.152;21.052;2023-11-19T05:10:05;0.80;99.90
47540;DHT22;33280;52.152;21.052;2023-11-19T05:12:32;0.70;99.90
47540;DHT22;33280;52.152;21.052;2023-11-19T05:14:59;0.70;99.90
47540;DHT22;33280;52.152;21.052;2023-11-19T05:17:27;0.70;99.90
47540;DHT22;33280;52.152;21.052;2023-11-19T05:19:54;0.80;99.90
47540;DHT22;33280;52.152;21.052;2023-11-19T05:22:21;0.70;99.90
47540;DHT22;33280;52.152;21.052;2023-11-19T05:24:48;0.80;99.90
47540;DHT22;33280;52.152;21.052;2023-11-19T05:27:16;0.80;99.90
47540;DHT22;33280;52.152;21.052;2023-11-19T05:29:43;0.80;99.90
47540;DHT22;33280;52.152;21.052;2023-11-19T05:32:10;0.80;99.90
47540;DHT22;33280;52.152;21.052;2023-11-19T05:34:38;0.80;99.90
47540;DHT22;33280;52.152;21.052;2023-11-19T05:37:18;0.80;99.90
47540;DHT22;33280;52.152;21.052;2023-11-19T05:39:45;0.90;99.90
47540;DHT22;33280;52.152;21.052;2023-11-19T05:42:13;0.90;99.90
47540;DHT22;33280;52.152;21.052;2023-11-19T05:44:40;1.00;99.90
47540;DHT22;33280;52.152;21.052;2023-11-19T05:47:07;0.90;99.90
47540;DHT22;33280;52.152;21.052;2023-11-19T05:49:35;1.00;99.90
47540;DHT22;33280;52.152;21.052;2023-11-19T05:52:02;0.90;99.90
47540;DHT22;33280;52.152;21.052;2023-11-19T05:54:30;1.00;99.90
47540;DHT22;33280;52.152;21.052;2023-11-19T05:56:59;0.90;99.90
47540;DHT22;33280;52.152;21.052;2023-11-19T05:59:26;0.70;99.90
47540;DHT22;33280;52.152;21.052;2023-11-19T06:01:53;0.70;99.90
47540;DHT22;33280;52.152;21.052;2023-11-19T06:04:21;0.80;99.90
47540;DHT22;33280;52.152;21.052;2023-11-19T06:06:48;0.80;99.90
47540;DHT22;33280;52.152;21.052;2023-11-19T06:09:15;0.90;99.90
47540;DHT22;33280;52.152;21.052;2023-11-19T06:11:45;0.80;99.90
47540;DHT22;33280;52.152;21.052;2023-11-19T06:14:14;0.90;99.90
47540;DHT22;33280;52.152;21.052;2023-11-19T06:16:42;0.80;99.90
47540;DHT22;33280;52.152;21.052;2023-11-19T06:19:09;1.00;99.90
47540;DHT22;33280;52.152;21.052;2023-11-19T06:21:37;1.00;99.90
47540;DHT22;33280;52.152;21.052;2023-11-19T06:24:04;0.90;99.90
47540;DHT22;33280;52.152;21.052;2023-11-19T06:26:32;0.90;99.90
47540;DHT22;33280;52.152;21.052;2023-11-19T06:28:59;0.90;99.90
47540;DHT22;33280;52.152;21.052;2023-11-19T06:31:26;0.90;99.90
47540;DHT22;33280;52.152;21.052;2023-11-19T06:33:53;0.90;99.90
47540;DHT22;33280;52.152;21.052;2023-11-19T06:36:21;0.80;99.90
47540;DHT22;33280;52.152;21.052;2023-11-19T06:38:48;0.80;99.90
47540;DHT22;33280;52.152;21.052;2023-11-19T06:41:16;0.90;99.90
47540;DHT22;33280;52.152;21.052;2023-11-19T06:43:43;0.90;99.90
47540;DHT22;33280;52.152;21.052;2023-11-19T06:46:17;0.80;99.90
47540;DHT22;33280;52.152;21.052;2023-11-19T06:48:44;0.90;99.90
47540;DHT22;33280;52.152;21.052;2023-11-19T06:51:12;0.90;99.90
47540;DHT22;33280;52.152;21.052;2023-11-19T06:53:40;0.90;99.90
47540;DHT22;33280;52.152;21.052;2023-11-19T06:56:20;1.00;99.90
47540;DHT22;33280;52.152;21.052;2023-11-19T06:58:48;0.90;99.90
47540;DHT22;33280;52.152;21.052;2023-11-19T07:01:17;0.90;99.90
47540;DHT22;33280;52.152;21.052;2023-11-19T07:03:45;0.80;99.90
47540;DHT22;33280;52.152;21.052;2023-11-19T07:06:16;0.70;99.90
47540;DHT22;33280;52.152;21.052;2023-11-19T07:08:43;0.50;99.90
47540;DHT22;33280;52.152;21.052;2023-11-19T07:11:14;0.40;99.90
47540;DHT22;33280;52.152;21.052;2023-11-19T07:13:44;0.50;99.90
47540;DHT22;33280;52.152;21.052;2023-11-19T07:16:14;0.50;99.90
47540;DHT22;33280;52.152;21.052;2023-11-19T07:18:42;0.60;99.90
47540;DHT22;33280;52.152;21.052;2023-11-19T07:21:11;0.60;99.90
47540;DHT22;33280;52.152;21.052;2023-11-19T07:23:38;0.60;99.90
47540;DHT22;33280;52.152;21.052;2023-11-19T07:26:06;0.70;99.90
47540;DHT22;33280;52.152;21.052;2023-11-19T07:28:35;0.80;99.90
47540;DHT22;33280;52.152;21.052;2023-11-19T07:31:02;0.90;99.90
47540;DHT22;33280;52.152;21.052;2023-11-19T07:33:29;0.90;99.90
47540;DHT22;33280;52.152;21.052;2023-11-19T07:35:56;0.90;99.90
47540;DHT22;33280;52.152;21.052;2023-11-19T07:38:23;0.80;99.90
47540;DHT22;33280;52.152;21.052;2023-11-19T07:40:51;0.90;99.90
47540;DHT22;33280;52.152;21.052;2023-11-19T07:43:20;0.90;99.90
47540;DHT22;33280;52.152;21.052;2023-11-19T07:45:47;1.00;99.90
47540;DHT22;33280;52.152;21.052;2023-11-19T07:48:14;0.90;99.90
47540;DHT22;33280;52.152;21.052;2023-11-19T07:50:42;1.00;99.90
47540;DHT22;33280;52.152;21.052;2023-11-19T07:53:09;0.80;99.90
47540;DHT22;33280;52.152;21.052;2023-11-19T07:55:37;0.80;99.90
47540;DHT22;33280;52.152;21.052;2023-11-19T07:58:08;0.70;99.90
47540;DHT22;33280;52.152;21.052;2023-11-19T08:00:35;0.70;99.90
47540;DHT22;33280;52.152;21.052;2023-11-19T08:03:03;0.80;99.90
47540;DHT22;33280;52.152;21.052;2023-11-19T08:05:31;0.90;99.90
47540;DHT22;33280;52.152;21.052;2023-11-19T08:07:58;0.90;99.90
47540;DHT22;33280;52.152;21.052;2023-11-19T08:10:26;0.90;99.90
47540;DHT22;33280;52.152;21.052;2023-11-19T08:12:55;0.80;99.90
47540;DHT22;33280;52.152;21.052;2023-11-19T08:15:22;0.90;99.90
47540;DHT22;33280;52.152;21.052;2023-11-19T08:17:52;1.00;99.90
47540;DHT22;33280;52.152;21.052;2023-11-19T08:20:20;1.00;99.90
47540;DHT22;33280;52.152;21.052;2023-11-19T08:22:47;1.00;99.90
47540;DHT22;33280;52.152;21.052;2023-11-19T08:25:15;1.10;99.90
47540;DHT22;33280;52.152;21.052;2023-11-19T08:27:42;1.10;99.90
47540;DHT22;33280;52.152;21.052;2023-11-19T08:30:10;1.20;99.90
47540;DHT22;33280;52.152;21.052;2023-11-19T08:32:38;1.20;99.90
47540;DHT22;33280;52.152;21.052;2023-11-19T08:35:05;1.10;99.90
47540;DHT22;33280;52.152;21.052;2023-11-19T08:37:33;1.10;99.90
47540;DHT22;33280;52.152;21.052;2023-11-19T08:40:03;1.10;99.90
47540;DHT22;33280;52.152;21.052;2023-11-19T08:42:31;1.00;99.90
47540;DHT22;33280;52.152;21.052;2023-11-19T08:44:58;1.10;99.90
47540;DHT22;33280;52.152;21.052;2023-11-19T08:47:25;1.20;99.90
47540;DHT22;33280;52.152;21.052;2023-11-19T08:49:53;1.30;99.90
47540;DHT22;33280;52.152;21.052;2023-11-19T08:52:23;1.20;99.90
47540;DHT22;33280;52.152;21.052;2023-11-19T08:54:50;1.40;99.90
47540;DHT22;33280;52.152;21.052;2023-11-19T08:57:17;1.40;99.90
47540;DHT22;33280;52.152;21.052;2023-11-19T08:59:44;1.50;99.90
47540;DHT22;33280;52.152;21.052;2023-11-19T09:02:13;1.50;99.90
47540;DHT22;33280;52.152;21.052;2023-11-19T09:04:40;1.50;99.90
47540;DHT22;33280;52.152;21.052;2023-11-19T09:07:08;1.50;99.90
47540;DHT22;33280;52.152;21.052;2023-11-19T09:09:36;1.50;99.90
47540;DHT22;33280;52.152;21.052;2023-11-19T09:12:04;1.50;99.90
47540;DHT22;33280;52.152;21.052;2023-11-19T09:14:31;1.40;99.90
47540;DHT22;33280;52.152;21.052;2023-11-19T09:16:58;1.30;99.90
47540;DHT22;33280;52.152;21.052;2023-11-19T09:19:25;1.30;99.90
47540;DHT22;33280;52.152;21.052;2023-11-19T09:21:55;1.40;99.90
47540;DHT22;33280;52.152;21.052;2023-11-19T09:24:22;1.50;99.90
47540;DHT22;33280;52.152;21.052;2023-11-19T09:26:49;1.50;99.90
47540;DHT22;33280;52.152;21.052;2023-11-19T09:29:16;1.50;99.90
47540;DHT22;33280;52.152;21.052;2023-11-19T09:31:43;1.50;99.90
47540;DHT22;33280;52.152;21.052;2023-11-19T09:34:10;1.50;99.90
47540;DHT22;33280;52.152;21.052;2023-11-19T09:36:38;1.50;99.90
47540;DHT22;33280;52.152;21.052;2023-11-19T09:39:11;1.50;99.90
47540;DHT22;33280;52.152;21.052;2023-11-19T09:41:41;1.50;99.90
47540;DHT22;33280;52.152;21.052;2023-11-19T09:44:09;1.50;99.90
47540;DHT22;33280;52.152;21.052;2023-11-19T09:46:41;1.50;99.90
47540;DHT22;33280;52.152;21.052;2023-11-19T09:49:10;1.60;99.90
47540;DHT22;33280;52.152;21.052;2023-11-19T09:51:38;1.60;99.90
47540;DHT22;33280;52.152;21.052;2023-11-19T09:54:05;1.70;99.90
47540;DHT22;33280;52.152;21.052;2023-11-19T09:56:36;1.70;99.90
47540;DHT22;33280;52.152;21.052;2023-11-19T09:59:05;1.70;99.90
47540;DHT22;33280;52.152;21.052;2023-11-19T10:01:32;1.50;99.90
47540;DHT22;33280;52.152;21.052;2023-11-19T10:04:01;1.40;99.90
47540;DHT22;33280;52.152;21.052;2023-11-19T10:06:28;1.50;99.90
47540;DHT22;33280;52.152;21.052;2023-11-19T10:08:56;1.40;99.90
47540;DHT22;33280;52.152;21.052;2023-11-19T10:11:23;1.30;99.90
47540;DHT22;33280;52.152;21.052;2023-11-19T10:13:51;1.30;99.90
47540;DHT22;33280;52.152;21.052;2023-11-19T10:16:19;1.10;99.90
47540;DHT22;33280;52.152;21.052;2023-11-19T10:18:48;1.20;99.90
47540;DHT22;33280;52.152;21.052;2023-11-19T10:21:18;1.30;99.90
47540;DHT22;33280;52.152;21.052;2023-11-19T10:23:55;1.40;99.90
47540;DHT22;33280;52.152;21.052;2023-11-19T10:26:24;1.50;99.90
47540;DHT22;33280;52.152;21.052;2023-11-19T10:28:51;1.50;99.90
47540;DHT22;33280;52.152;21.052;2023-11-19T10:31:19;1.60;99.90
47540;DHT22;33280;52.152;21.052;2023-11-19T10:33:49;1.70;99.90
47540;DHT22;33280;52.152;21.052;2023-11-19T10:36:17;1.70;99.90
47540;DHT22;33280;52.152;21.052;2023-11-19T10:38:55;1.60;99.90
47540;DHT22;33280;52.152;21.052;2023-11-19T10:41:32;1.60;99.90
47540;DHT22;33280;52.152;21.052;2023-11-19T10:44:00;1.60;99.90
47540;DHT22;33280;52.152;21.052;2023-11-19T10:46:41;1.60;99.90
47540;DHT22;33280;52.152;21.052;2023-11-19T10:49:08;1.50;99.90
47540;DHT22;33280;52.152;21.052;2023-11-19T10:51:36;1.50;99.90
47540;DHT22;33280;52.152;21.052;2023-11-19T10:54:06;1.60;99.90
47540;DHT22;33280;52.152;21.052;2023-11-19T10:56:34;1.60;99.90
47540;DHT22;33280;52.152;21.052;2023-11-19T10:59:02;1.60;99.90
47540;DHT22;33280;52.152;21.052;2023-11-19T11:01:49;1.60;99.90
47540;DHT22;33280;52.152;21.052;2023-11-19T11:04:23;1.70;99.90
47540;DHT22;33280;52.152;21.052;2023-11-19T11:06:54;1.70;99.90
47540;DHT22;33280;52.152;21.052;2023-11-19T11:09:21;1.60;99.90
47540;DHT22;33280;52.152;21.052;2023-11-19T11:11:50;1.40;99.90
47540;DHT22;33280;52.152;21.052;2023-11-19T11:14:20;1.40;99.90
47540;DHT22;33280;52.152;21.052;2023-11-19T11:16:49;1.50;99.90
47540;DHT22;33280;52.152;21.052;2023-11-19T11:19:18;1.50;99.90
47540;DHT22;33280;52.152;21.052;2023-11-19T11:21:52;1.40;99.90
47540;DHT22;33280;52.152;21.052;2023-11-19T11:27:35;1.30;99.90
47540;DHT22;33280;52.152;21.052;2023-11-19T11:31:15;1.30;99.90
47540;DHT22;33280;52.152;21.052;2023-11-19T11:39:16;1.40;99.90
47540;DHT22;33280;52.152;21.052;2023-11-19T11:41:43;1.40;99.90
47540;DHT22;33280;52.152;21.052;2023-11-19T11:44:11;1.40;99.90
47540;DHT22;33280;52.152;21.052;2023-11-19T11:49:07;1.30;99.90
47540;DHT22;33280;52.152;21.052;2023-11-19T11:54:26;1.30;99.90
47540;DHT22;33280;52.152;21.052;2023-11-19T11:57:12;1.30;99.90
47540;DHT22;33280;52.152;21.052;2023-11-19T12:02:13;1.30;99.90
47540;DHT22;33280;52.152;21.052;2023-11-19T12:04:40;1.40;99.90
47540;DHT22;33280;52.152;21.052;2023-11-19T12:07:13;1.40;99.90
47540;DHT22;33280;52.152;21.052;2023-11-19T12:09:41;1.50;99.90
47540;DHT22;33280;52.152;21.052;2023-11-19T12:12:26;1.40;99.90
47540;DHT22;33280;52.152;21.052;2023-11-19T12:15:01;1.40;99.90
47540;DHT22;33280;52.152;21.052;2023-11-19T12:20:03;1.50;99.90
47540;DHT22;33280;52.152;21.052;2023-11-19T12:22:32;1.40;99.90
47540;DHT22;33280;52.152;21.052;2023-11-19T12:24:59;1.50;99.90
47540;DHT22;33280;52.152;21.052;2023-11-19T12:27:26;1.50;99.90
47540;DHT22;33280;52.152;21.052;2023-11-19T12:29:54;1.50;99.90
47540;DHT22;33280;52.152;21.052;2023-11-19T12:32:24;1.50;99.90
47540;DHT22;33280;52.152;21.052;2023-11-19T12:34:51;1.40;99.90
47540;DHT22;33280;52.152;21.052;2023-11-19T12:37:18;1.50;99.90
47540;DHT22;33280;52.152;21.052;2023-11-19T12:39:45;1.60;99.90
47540;DHT22;33280;52.152;21.052;2023-11-19T12:42:12;1.60;99.90
47540;DHT22;33280;52.152;21.052;2023-11-19T12:44:55;1.60;99.90
47540;DHT22;33280;52.152;21.052;2023-11-19T12:47:22;1.60;99.90
47540;DHT22;33280;52.152;21.052;2023-11-19T12:49:59;1.60;99.90
47540;DHT22;33280;52.152;21.052;2023-11-19T12:52:26;1.70;99.90
47540;DHT22;33280;52.152;21.052;2023-11-19T12:54:54;1.60;99.90
47540;DHT22;33280;52.152;21.052;2023-11-19T12:57:36;1.60;99.90
47540;DHT22;33280;52.152;21.052;2023-11-19T13:00:04;1.60;99.90
47540;DHT22;33280;52.152;21.052;2023-11-19T13:02:52;1.60;99.90
47540;DHT22;33280;52.152;21.052;2023-11-19T13:05:30;1.70;99.90
47540;DHT22;33280;52.152;21.052;2023-11-19T13:08:07;1.70;99.90
47540;DHT22;33280;52.152;21.052;2023-11-19T13:10:53;1.70;99.90
47540;DHT22;33280;52.152;21.052;2023-11-19T13:13:23;1.70;99.90
47540;DHT22;33280;52.152;21.052;2023-11-19T13:15:50;1.70;99.90
47540;DHT22;33280;52.152;21.052;2023-11-19T13:18:17;1.70;99.90
47540;DHT22;33280;52.152;21.052;2023-11-19T13:20:44;1.70;99.90
47540;DHT22;33280;52.152;21.052;2023-11-19T13:23:11;1.60;99.90
47540;DHT22;33280;52.152;21.052;2023-11-19T13:25:39;1.60;99.90
47540;DHT22;33280;52.152;21.052;2023-11-19T13:28:06;1.60;99.90
47540;DHT22;33280;52.152;21.052;2023-11-19T13:30:33;1.50;99.90
47540;DHT22;33280;52.152;21.052;2023-11-19T13:32:59;1.50;99.90
47540;DHT22;33280;52.152;21.052;2023-11-19T13:35:28;1.50;99.90
47540;DHT22;33280;52.152;21.052;2023-11-19T13:37:55;1.50;99.90
47540;DHT22;33280;52.152;21.052;2023-11-19T13:40:22;1.40;99.90
47540;DHT22;33280;52.152;21.052;2023-11-19T13:42:51;1.40;99.90
47540;DHT22;33280;52.152;21.052;2023-11-19T13:45:18;1.40;99.90
47540;DHT22;33280;52.152;21.052;2023-11-19T13:47:48;1.50;99.90
47540;DHT22;33280;52.152;21.052;2023-11-19T13:50:16;1.40;99.90
47540;DHT22;33280;52.152;21.052;2023-11-19T13:52:46;1.40;99.90
47540;DHT22;33280;52.152;21.052;2023-11-19T13:55:14;1.50;99.90
47540;DHT22;33280;52.152;21.052;2023-11-19T13:57:42;1.50;99.90
47540;DHT22;33280;52.152;21.052;2023-11-19T14:00:11;1.50;99.90
47540;DHT22;33280;52.152;21.052;2023-11-19T14:02:43;1.50;99.90
47540;DHT22;33280;52.152;21.052;2023-11-19T14:05:10;1.40;99.90
47540;DHT22;33280;52.152;21.052;2023-11-19T14:07:38;1.50;99.90
47540;DHT22;33280;52.152;21.052;2023-11-19T14:10:07;1.40;99.90
47540;DHT22;33280;52.152;21.052;2023-11-19T14:12:37;1.30;99.90
47540;DHT22;33280;52.152;21.052;2023-11-19T14:15:08;1.40;99.90
47540;DHT22;33280;52.152;21.052;2023-11-19T14:17:40;1.40;99.90
47540;DHT22;33280;52.152;21.052;2023-11-19T14:20:07;1.40;99.90
47540;DHT22;33280;52.152;21.052;2023-11-19T14:22:43;1.30;99.90
47540;DHT22;33280;52.152;21.052;2023-11-19T14:25:11;1.30;99.90
47540;DHT22;33280;52.152;21.052;2023-11-19T14:27:42;1.30;99.90
47540;DHT22;33280;52.152;21.052;2023-11-19T14:30:12;1.30;99.90
47540;DHT22;33280;52.152;21.052;2023-11-19T14:32:43;1.30;99.90
47540;DHT22;33280;52.152;21.052;2023-11-19T14:35:13;1.20;99.90
47540;DHT22;33280;52.152;21.052;2023-11-19T14:37:40;1.20;99.90
47540;DHT22;33280;52.152;21.052;2023-11-19T14:40:08;1.20;99.90
47540;DHT22;33280;52.152;21.052;2023-11-19T14:42:38;1.20;99.90
47540;DHT22;33280;52.152;21.052;2023-11-19T14:45:06;1.20;99.90
47540;DHT22;33280;52.152;21.052;2023-11-19T14:47:34;1.20;99.90
47540;DHT22;33280;52.152;21.052;2023-11-19T14:50:01;1.10;99.90
47540;DHT22;33280;52.152;21.052;2023-11-19T14:52:30;1.10;99.90
47540;DHT22;33280;52.152;21.052;2023-11-19T14:54:57;1.10;99.90
47540;DHT22;33280;52.152;21.052;2023-11-19T14:57:24;1.10;99.90
47540;DHT22;33280;52.152;21.052;2023-11-19T14:59:51;1.10;99.90
47540;DHT22;33280;52.152;21.052;2023-11-19T15:02:18;1.20;99.90
47540;DHT22;33280;52.152;21.052;2023-11-19T15:04:45;1.10;99.90
47540;DHT22;33280;52.152;21.052;2023-11-19T15:07:13;1.10;99.90
47540;DHT22;33280;52.152;21.052;2023-11-19T15:09:40;1.10;99.90
47540;DHT22;33280;52.152;21.052;2023-11-19T15:12:08;1.00;99.90
47540;DHT22;33280;52.152;21.052;2023-11-19T15:14:36;1.00;99.90
47540;DHT22;33280;52.152;21.052;2023-11-19T15:17:03;1.00;99.90
47540;DHT22;33280;52.152;21.052;2023-11-19T15:19:30;1.00;99.90
47540;DHT22;33280;52.152;21.052;2023-11-19T15:21:57;1.00;99.90
47540;DHT22;33280;52.152;21.052;2023-11-19T15:24:24;1.00;99.90
47540;DHT22;33280;52.152;21.052;2023-11-19T15:26:52;0.90;99.90
47540;DHT22;33280;52.152;21.052;2023-11-19T15:29:39;1.10;99.90
47540;DHT22;33280;52.152;21.052;2023-11-19T15:32:07;1.00;99.90
47540;DHT22;33280;52.152;21.052;2023-11-19T15:34:34;1.00;99.90
47540;DHT22;33280;52.152;21.052;2023-11-19T15:37:04;1.10;99.90
47540;DHT22;33280;52.152;21.052;2023-11-19T15:39:31;1.00;99.90
47540;DHT22;33280;52.152;21.052;2023-11-19T15:41:59;1.00;99.90
47540;DHT22;33280;52.152;21.052;2023-11-19T15:44:26;1.00;99.90
47540;DHT22;33280;52.152;21.052;2023-11-19T15:46:53;1.00;99.90
47540;DHT22;33280;52.152;21.052;2023-11-19T15:49:21;1.00;99.90
47540;DHT22;33280;52.152;21.052;2023-11-19T15:51:49;1.00;99.90
47540;DHT22;33280;52.152;21.052;2023-11-19T15:54:16;1.00;99.90
47540;DHT22;33280;52.152;21.052;2023-11-19T15:56:43;1.00;99.90
47540;DHT22;33280;52.152;21.052;2023-11-19T15:59:10;1.00;99.90